Time;durP1;ratioP1;P1;durP2;ratioP2;P2;SDS_P1;SDS_P2;PMS_P1;PMS_P2;Temp;Humidity;BMP_temperature;BMP_pressure;BME280_temperature;BME280_humidity;BME280_pressure;Samples;Min_cycle;Max_cycle;Signal;HPM_P1;HPM_P2
2022/07/12 00:01:38;;;;;;;4.70;4.13;;;14.90;99.90;;;;;;5092250;28;20282;-76
2022/07/12 00:04:05;;;;;;;5.90;4.23;;;14.90;99.90;;;;;;5091781;28;20241;-76
2022/07/12 00:06:33;;;;;;;4.53;3.60;;;14.80;99.90;;;;;;5092180;28;20293;-77
2022/07/12 00:09:00;;;;;;;4.23;3.83;;;14.80;99.90;;;;;;5092008;28;20222;-76
2022/07/12 00:11:26;;;;;;;4.17;3.77;;;14.80;99.90;;;;;;5090769;28;20247;-75
2022/07/12 00:13:53;;;;;;;4.20;3.80;;;14.70;99.90;;;;;;5090444;28;20282;-77
2022/07/12 00:16:20;;;;;;;5.80;3.90;;;14.60;99.90;;;;;;5090491;28;20201;-76
2022/07/12 00:18:47;;;;;;;4.70;3.87;;;14.60;99.90;;;;;;5092215;28;20190;-76
2022/07/12 00:21:13;;;;;;;4.57;4.07;;;14.60;99.90;;;;;;5092002;28;20259;-76
2022/07/12 00:23:41;;;;;;;5.27;4.60;;;14.60;99.90;;;;;;5091544;28;20288;-76
2022/07/12 00:26:08;;;;;;;5.07;3.80;;;14.60;99.90;;;;;;5090580;28;20554;-76
2022/07/12 00:28:35;;;;;;;4.30;3.90;;;14.50;99.90;;;;;;5090391;28;20214;-76
2022/07/12 00:31:03;;;;;;;4.80;4.37;;;14.50;99.90;;;;;;5090351;28;20251;-76
2022/07/12 00:33:30;;;;;;;4.20;3.80;;;14.50;99.90;;;;;;5090226;28;20226;-77
2022/07/12 00:35:57;;;;;;;3.87;3.47;;;14.50;99.90;;;;;;5090350;28;20250;-75
2022/07/12 00:38:23;;;;;;;5.03;4.13;;;14.40;99.90;;;;;;5090386;28;20203;-76
2022/07/12 00:40:52;;;;;;;4.00;3.60;;;14.40;99.90;;;;;;5091446;28;20197;-76
2022/07/12 00:43:18;;;;;;;5.47;4.10;;;14.40;99.90;;;;;;5091367;28;20297;-76
2022/07/12 00:45:45;;;;;;;4.80;4.10;;;14.40;99.90;;;;;;5091485;28;20248;-76
2022/07/12 00:48:13;;;;;;;5.87;4.03;;;14.40;99.90;;;;;;5091612;28;20214;-75
2022/07/12 00:50:40;;;;;;;4.50;4.10;;;14.30;99.90;;;;;;5091968;28;20582;-75
2022/07/12 00:53:08;;;;;;;4.47;3.90;;;14.30;99.90;;;;;;5091216;28;20217;-75
2022/07/12 00:55:36;;;;;;;4.10;3.70;;;14.30;99.90;;;;;;5090327;28;20193;-77
2022/07/12 00:58:04;;;;;;;4.50;3.83;;;14.30;99.90;;;;;;5091628;28;20606;-76
2022/07/12 01:00:31;;;;;;;4.00;3.60;;;14.20;99.90;;;;;;5091542;28;20248;-76
2022/07/12 01:02:59;;;;;;;4.50;4.03;;;14.30;99.90;;;;;;5091300;28;20194;-77
2022/07/12 01:05:28;;;;;;;4.40;4.00;;;14.20;99.90;;;;;;5089964;28;20258;-76
2022/07/12 01:07:56;;;;;;;5.30;4.07;;;14.20;99.90;;;;;;5090067;28;20197;-76
2022/07/12 01:10:24;;;;;;;4.57;4.10;;;14.20;99.90;;;;;;5090137;28;20197;-76
2022/07/12 01:12:51;;;;;;;4.60;3.93;;;14.20;99.90;;;;;;5091596;28;20598;-77
2022/07/12 01:15:20;;;;;;;4.40;4.00;;;14.10;99.90;;;;;;5091244;28;20258;-76
2022/07/12 01:17:47;;;;;;;5.23;4.30;;;14.10;99.90;;;;;;5091337;28;20189;-76
2022/07/12 01:20:14;;;;;;;5.20;4.03;;;14.10;99.90;;;;;;5091404;28;20189;-76
2022/07/12 01:22:44;;;;;;;4.80;4.30;;;14.00;99.90;;;;;;5091341;28;20255;-76
2022/07/12 01:25:12;;;;;;;5.07;4.37;;;14.00;99.90;;;;;;5082870;28;20219;-77
2022/07/12 01:27:39;;;;;;;4.40;4.00;;;14.00;99.90;;;;;;5091426;28;20277;-76
2022/07/12 01:30:07;;;;;;;4.47;3.93;;;14.00;99.90;;;;;;5091216;28;20602;-75
2022/07/12 01:32:35;;;;;;;5.07;4.37;;;13.90;99.90;;;;;;5091215;28;20235;-76
2022/07/12 01:35:03;;;;;;;5.07;4.40;;;13.90;99.90;;;;;;5089561;28;20259;-76
2022/07/12 01:37:33;;;;;;;5.27;4.40;;;13.90;99.90;;;;;;5089880;28;20724;-76
2022/07/12 01:40:01;;;;;;;4.90;4.40;;;13.80;99.90;;;;;;5089978;28;20194;-76
2022/07/12 01:42:30;;;;;;;5.30;4.60;;;13.80;99.90;;;;;;5091241;28;20198;-76
2022/07/12 01:44:58;;;;;;;4.83;4.33;;;13.80;99.90;;;;;;5089431;28;20650;-75
2022/07/12 01:47:29;;;;;;;4.77;4.37;;;13.80;99.90;;;;;;5091173;28;20190;-76
2022/07/12 01:49:56;;;;;;;4.20;3.80;;;13.70;99.90;;;;;;5090881;28;20214;-77
2022/07/12 01:52:23;;;;;;;4.83;4.10;;;13.70;99.90;;;;;;5091708;28;20206;-76
2022/07/12 01:54:50;;;;;;;5.33;4.70;;;13.70;99.90;;;;;;5093203;28;20663;-78
2022/07/12 01:57:17;;;;;;;5.23;4.57;;;13.70;99.90;;;;;;5094684;28;20194;-76
2022/07/12 01:59:46;;;;;;;4.97;4.10;;;13.60;99.90;;;;;;5092673;28;20620;-78
2022/07/12 02:02:12;;;;;;;4.90;4.30;;;13.60;99.90;;;;;;5094570;28;20202;-76
2022/07/12 02:04:39;;;;;;;4.37;3.97;;;13.60;99.90;;;;;;5092770;28;20221;-76
2022/07/12 02:07:06;;;;;;;4.53;4.07;;;13.60;99.90;;;;;;5094526;28;20743;-76
2022/07/12 02:09:33;;;;;;;4.87;4.40;;;13.60;99.90;;;;;;5094443;28;20213;-78
2022/07/12 02:12:00;;;;;;;5.80;4.40;;;13.60;99.90;;;;;;5094489;28;20220;-77
2022/07/12 02:14:27;;;;;;;6.80;4.27;;;13.60;99.90;;;;;;5094125;28;20705;-76
2022/07/12 02:16:55;;;;;;;5.13;4.63;;;13.60;99.90;;;;;;5094298;28;20212;-76
2022/07/12 02:19:22;;;;;;;5.50;4.70;;;13.50;99.90;;;;;;5092960;28;20259;-76
2022/07/12 02:21:49;;;;;;;4.80;4.40;;;13.50;99.90;;;;;;5094560;28;20242;-76
2022/07/12 02:24:16;;;;;;;6.70;4.83;;;13.50;99.90;;;;;;5093831;28;20260;-77
2022/07/12 02:26:43;;;;;;;8.13;4.83;;;13.40;99.90;;;;;;5092818;28;20202;-78
2022/07/12 02:29:10;;;;;;;5.10;4.30;;;13.50;99.90;;;;;;5085726;28;20234;-75
2022/07/12 02:31:37;;;;;;;5.07;4.50;;;13.40;99.90;;;;;;5094033;28;20629;-78
2022/07/12 02:34:06;;;;;;;5.10;4.50;;;13.50;99.90;;;;;;5093571;28;20270;-76
2022/07/12 02:36:33;;;;;;;4.50;4.10;;;13.50;99.90;;;;;;5093955;28;20245;-75
2022/07/12 02:39:02;;;;;;;5.90;4.63;;;13.50;99.90;;;;;;5093895;28;20607;-76
2022/07/12 02:41:29;;;;;;;5.00;4.33;;;13.50;99.90;;;;;;5093900;28;20193;-78
2022/07/12 02:43:56;;;;;;;4.90;4.40;;;13.50;99.90;;;;;;5101235;28;20223;-78
2022/07/12 02:46:23;;;;;;;5.03;4.53;;;13.50;99.90;;;;;;5092340;28;20248;-76
2022/07/12 02:48:49;;;;;;;5.77;4.60;;;13.40;99.90;;;;;;5093577;28;20213;-76
2022/07/12 02:51:18;;;;;;;6.77;4.40;;;13.40;99.90;;;;;;5092296;28;20698;-79
2022/07/12 02:53:45;;;;;;;4.77;4.37;;;13.40;99.90;;;;;;5096639;28;20229;-78
2022/07/12 02:56:12;;;;;;;4.37;3.97;;;13.30;99.90;;;;;;5092395;28;20206;-79
2022/07/12 02:58:39;;;;;;;4.53;4.13;;;13.30;99.90;;;;;;5093471;28;20211;-80
2022/07/12 03:01:06;;;;;;;4.33;3.87;;;13.30;99.90;;;;;;5089713;28;20268;-80
2022/07/12 03:03:33;;;;;;;4.83;4.27;;;13.30;99.90;;;;;;5092197;28;20214;-80
2022/07/12 03:05:59;;;;;;;4.97;4.47;;;13.20;99.90;;;;;;5095916;28;20194;-79
2022/07/12 03:08:27;;;;;;;5.03;4.33;;;13.20;99.90;;;;;;5095639;28;20239;-80
2022/07/12 03:10:54;;;;;;;5.70;4.63;;;13.20;99.90;;;;;;5087641;28;20667;-80
2022/07/12 03:13:21;;;;;;;5.80;4.40;;;13.20;99.90;;;;;;5094272;28;20221;-79
2022/07/12 03:15:49;;;;;;;5.43;4.73;;;13.20;99.90;;;;;;5100812;28;20212;-79
2022/07/12 03:18:17;;;;;;;4.77;4.20;;;13.20;99.90;;;;;;5093956;28;20202;-80
2022/07/12 03:20:43;;;;;;;4.63;4.23;;;13.20;99.90;;;;;;5094205;28;20204;-80
2022/07/12 03:23:10;;;;;;;4.97;4.33;;;13.10;99.90;;;;;;5088850;28;20642;-79
2022/07/12 03:25:38;;;;;;;4.83;4.33;;;13.10;99.90;;;;;;5091113;28;20279;-80
2022/07/12 03:28:05;;;;;;;4.70;4.30;;;13.10;99.90;;;;;;5093800;28;20262;-79
2022/07/12 03:30:32;;;;;;;5.47;4.47;;;13.10;99.90;;;;;;5096861;28;20217;-80
2022/07/12 03:32:59;;;;;;;4.73;4.23;;;13.20;99.90;;;;;;5095008;28;20278;-80
2022/07/12 03:35:26;;;;;;;4.90;4.40;;;13.20;99.90;;;;;;5093707;28;20715;-80
2022/07/12 03:37:53;;;;;;;4.73;4.20;;;13.20;99.90;;;;;;5094230;28;20230;-77
2022/07/12 03:40:21;;;;;;;4.83;3.77;;;13.20;99.90;;;;;;5093603;28;20243;-77
2022/07/12 03:42:50;;;;;;;4.93;4.00;;;13.30;99.90;;;;;;5094142;28;20574;-78
2022/07/12 03:45:18;;;;;;;4.90;4.40;;;13.30;99.90;;;;;;5091815;28;20206;-78
2022/07/12 03:47:45;;;;;;;5.47;4.97;;;13.30;99.90;;;;;;5089235;28;20659;-78
2022/07/12 03:50:13;;;;;;;5.23;4.73;;;13.40;99.90;;;;;;5091791;28;20213;-80
2022/07/12 03:52:42;;;;;;;4.20;3.80;;;13.50;99.90;;;;;;5094522;28;20201;-78
2022/07/12 03:55:09;;;;;;;4.53;4.13;;;13.60;99.90;;;;;;5092717;28;20255;-78
2022/07/12 03:57:37;;;;;;;4.93;4.43;;;13.60;99.90;;;;;;5092372;28;20557;-79
2022/07/12 04:00:10;;;;;;;4.87;4.40;;;13.70;99.90;;;;;;5094222;28;20254;-78
2022/07/12 04:02:38;;;;;;;4.90;4.40;;;13.80;99.90;;;;;;5089836;28;20201;-78
2022/07/12 04:05:06;;;;;;;4.50;4.00;;;13.80;99.90;;;;;;5094612;28;20226;-78
2022/07/12 04:07:33;;;;;;;4.60;4.20;;;13.80;99.90;;;;;;5091835;28;20344;-77
2022/07/12 04:10:00;;;;;;;4.53;4.13;;;13.90;99.90;;;;;;5093928;28;20209;-77
2022/07/12 04:12:27;;;;;;;4.40;4.00;;;14.00;99.90;;;;;;5092656;28;20199;-78
2022/07/12 04:14:54;;;;;;;5.83;4.40;;;14.00;99.90;;;;;;5093233;28;20248;-79
2022/07/12 04:17:22;;;;;;;4.67;4.23;;;14.00;99.90;;;;;;5092402;28;20199;-78
2022/07/12 04:19:49;;;;;;;4.90;4.47;;;14.10;99.90;;;;;;5093720;28;20247;-78
2022/07/12 04:22:15;;;;;;;4.57;4.10;;;14.10;99.90;;;;;;5092527;28;20203;-78
2022/07/12 04:24:42;;;;;;;5.30;4.80;;;14.10;99.90;;;;;;5093560;28;20217;-79
2022/07/12 04:27:09;;;;;;;4.80;4.30;;;14.20;99.90;;;;;;5085327;28;20254;-78
2022/07/12 04:29:36;;;;;;;5.37;4.47;;;14.20;99.90;;;;;;5093761;28;20267;-78
2022/07/12 04:32:02;;;;;;;5.23;4.73;;;14.30;99.90;;;;;;5093839;28;20194;-78
2022/07/12 04:34:31;;;;;;;6.23;4.60;;;14.40;99.90;;;;;;5093157;28;20263;-78
2022/07/12 04:36:57;;;;;;;5.00;4.50;;;14.40;99.90;;;;;;5093657;28;20190;-78
2022/07/12 04:39:24;;;;;;;4.57;4.17;;;14.50;99.90;;;;;;5092198;28;20280;-78
2022/07/12 04:41:51;;;;;;;5.43;4.93;;;14.70;99.90;;;;;;5092619;28;20205;-78
2022/07/12 04:44:18;;;;;;;4.50;4.10;;;14.80;99.90;;;;;;5093179;28;20227;-77
2022/07/12 04:46:44;;;;;;;4.30;3.90;;;15.00;99.90;;;;;;5092128;28;20207;-78
2022/07/12 04:49:11;;;;;;;4.30;3.90;;;15.10;99.90;;;;;;5090892;28;20219;-80
2022/07/12 04:51:39;;;;;;;5.40;4.50;;;15.20;99.90;;;;;;5088464;28;20289;-78
2022/07/12 04:54:06;;;;;;;5.80;4.17;;;15.30;99.90;;;;;;5091352;28;20769;-78
2022/07/12 04:56:33;;;;;;;4.90;4.40;;;15.40;99.90;;;;;;5091979;28;20271;-80
2022/07/12 04:59:00;;;;;;;5.83;4.27;;;15.60;99.90;;;;;;5093963;28;20204;-78
2022/07/12 05:01:27;;;;;;;4.87;4.20;;;15.90;99.90;;;;;;5093683;28;20204;-78
2022/07/12 05:03:53;;;;;;;4.90;4.20;;;16.10;99.90;;;;;;5085674;28;20224;-78
2022/07/12 05:06:20;;;;;;;5.17;4.33;;;16.20;99.90;;;;;;5091522;28;20669;-81
2022/07/12 05:08:48;;;;;;;5.67;4.20;;;16.20;99.90;;;;;;5082777;28;20197;-76
2022/07/12 05:11:15;;;;;;;4.80;4.30;;;16.30;99.90;;;;;;5090552;28;20221;-77
2022/07/12 05:13:42;;;;;;;4.30;3.90;;;16.40;99.90;;;;;;5090015;28;20221;-79
2022/07/12 05:16:09;;;;;;;4.40;4.00;;;16.40;99.90;;;;;;5086796;28;20201;-78
2022/07/12 05:18:36;;;;;;;5.77;5.30;;;16.40;99.90;;;;;;5090787;28;20202;-77
2022/07/12 05:21:03;;;;;;;5.60;5.10;;;16.40;99.90;;;;;;5091580;28;20254;-78
2022/07/12 05:23:30;;;;;;;6.80;6.30;;;16.50;99.90;;;;;;5089812;28;20247;-77
2022/07/12 05:25:58;;;;;;;4.63;4.23;;;16.60;99.90;;;;;;5090185;28;20291;-76
2022/07/12 05:28:25;;;;;;;4.47;4.07;;;16.70;99.90;;;;;;5094300;28;20619;-77
2022/07/12 05:30:53;;;;;;;4.83;4.20;;;16.80;99.90;;;;;;5095484;28;20216;-78
2022/07/12 05:33:19;;;;;;;8.43;7.80;;;16.80;99.90;;;;;;5095313;28;20303;-77
2022/07/12 05:35:46;;;;;;;6.50;5.90;;;16.80;99.90;;;;;;5094607;28;20244;-78
2022/07/12 05:38:13;;;;;;;9.80;9.10;;;16.90;99.90;;;;;;5098096;28;20193;-80
2022/07/12 05:40:40;;;;;;;5.20;4.00;;;17.00;99.90;;;;;;5096387;28;20615;-80
2022/07/12 05:43:08;;;;;;;7.67;7.07;;;17.10;99.90;;;;;;5088808;28;20790;-83
2022/07/12 05:45:34;;;;;;;9.07;8.47;;;17.20;99.90;;;;;;5098292;28;20220;-81
2022/07/12 05:48:01;;;;;;;8.10;7.50;;;17.60;99.90;;;;;;5101101;28;20223;-80
2022/07/12 05:50:28;;;;;;;8.20;7.47;;;18.10;99.90;;;;;;5098540;28;20267;-79
2022/07/12 05:55:39;;;;;;;5.67;5.20;;;19.40;99.90;;;;;;5100353;28;20187;-81
2022/07/12 05:58:07;;;;;;;8.00;7.20;;;20.20;99.90;;;;;;5101051;28;20193;-81
2022/07/12 06:00:34;;;;;;;7.33;6.83;;;20.80;99.90;;;;;;5099958;28;20189;-80
2022/07/12 06:03:01;;;;;;;5.43;5.03;;;21.20;99.90;;;;;;5099677;28;20209;-82
2022/07/12 06:05:28;;;;;;;7.37;6.70;;;21.70;99.90;;;;;;5096644;28;20213;-81
2022/07/12 06:07:55;;;;;;;4.30;3.90;;;22.20;99.90;;;;;;5097269;28;20675;-80
2022/07/12 06:10:22;;;;;;;9.90;9.20;;;22.40;99.90;;;;;;5100309;28;20259;-81
2022/07/12 06:12:49;;;;;;;4.63;4.17;;;22.60;99.90;;;;;;5097825;28;20190;-80
2022/07/12 06:15:17;;;;;;;6.10;4.30;;;22.50;99.90;;;;;;5096731;28;20212;-81
2022/07/12 06:17:44;;;;;;;4.30;4.00;;;22.60;99.90;;;;;;5093055;28;20262;-81
2022/07/12 06:20:11;;;;;;;5.73;3.80;;;22.80;99.90;;;;;;5099064;28;20262;-81
2022/07/12 06:22:38;;;;;;;4.50;4.10;;;22.60;99.90;;;;;;5100556;28;20207;-81
2022/07/12 06:25:06;;;;;;;5.80;5.30;;;22.80;99.90;;;;;;5101093;28;20225;-81
2022/07/12 06:27:33;;;;;;;6.97;6.37;;;22.90;99.90;;;;;;5097733;28;20217;-81
2022/07/12 06:30:00;;;;;;;5.50;5.00;;;23.00;99.90;;;;;;5097653;28;20220;-81
2022/07/12 06:32:28;;;;;;;4.23;3.83;;;23.20;99.90;;;;;;5087340;28;20194;-81
2022/07/12 06:34:55;;;;;;;8.27;7.50;;;23.40;99.90;;;;;;5089069;28;20217;-82
2022/07/12 06:37:22;;;;;;;8.80;8.20;;;23.40;99.90;;;;;;5093391;28;20276;-81
2022/07/12 06:39:49;;;;;;;7.77;7.17;;;23.40;99.90;;;;;;5093356;28;20190;-81
2022/07/12 06:42:16;;;;;;;8.37;7.70;;;23.50;99.90;;;;;;5093948;28;20255;-82
2022/07/12 06:44:53;;;;;;;7.27;6.77;;;23.70;99.90;;;;;;5078321;28;20226;-80
2022/07/12 06:47:20;;;;;;;7.17;6.53;;;24.00;99.90;;;;;;5074670;28;20252;-83
2022/07/12 06:49:48;;;;;;;7.43;6.83;;;24.20;99.90;;;;;;5081745;28;20198;-80
2022/07/12 06:52:15;;;;;;;7.00;6.40;;;24.30;99.90;;;;;;5092993;28;20202;-81
2022/07/12 06:54:41;;;;;;;5.90;5.40;;;24.20;99.90;;;;;;5092485;28;20271;-82
2022/07/12 06:57:08;;;;;;;7.77;4.93;;;24.20;99.90;;;;;;5093020;28;20197;-82
2022/07/12 06:59:35;;;;;;;5.90;5.23;;;24.20;99.90;;;;;;5093927;28;20206;-81
2022/07/12 07:02:02;;;;;;;6.47;5.97;;;24.10;99.90;;;;;;5092890;28;20615;-81
2022/07/12 07:04:29;;;;;;;5.07;4.27;;;24.00;99.90;;;;;;5093563;28;20224;-82
2022/07/12 07:06:57;;;;;;;4.00;3.70;;;24.20;99.90;;;;;;5090008;28;20205;-80
2022/07/12 07:09:24;;;;;;;4.73;4.33;;;24.50;99.90;;;;;;5091002;28;20254;-80
2022/07/12 07:11:51;;;;;;;4.07;3.67;;;24.70;99.90;;;;;;5089966;28;20304;-81
2022/07/12 07:14:18;;;;;;;5.93;5.33;;;24.70;99.90;;;;;;5093080;28;20221;-81
2022/07/12 07:16:44;;;;;;;3.90;3.43;;;24.80;99.90;;;;;;5091840;28;20210;-80
2022/07/12 07:19:11;;;;;;;4.30;3.90;;;25.10;99.90;;;;;;5092129;28;20686;-82
2022/07/12 07:21:38;;;;;;;4.10;3.40;;;25.00;99.90;;;;;;5092345;28;20190;-81
2022/07/12 07:24:06;;;;;;;4.27;3.50;;;25.00;99.90;;;;;;5092860;28;20213;-81
2022/07/12 07:26:34;;;;;;;7.03;6.53;;;25.00;99.90;;;;;;5092537;28;20202;-81
2022/07/12 07:31:45;;;;;;;7.77;7.17;;;25.40;99.90;;;;;;5097372;28;20218;-81
2022/07/12 07:34:12;;;;;;;7.00;6.50;;;25.50;99.90;;;;;;5100054;28;20248;-82
2022/07/12 07:36:39;;;;;;;6.20;5.80;;;25.50;99.90;;;;;;5098956;28;20213;-81
2022/07/12 07:39:07;;;;;;;7.60;7.00;;;25.60;99.90;;;;;;5099440;28;20198;-83
2022/07/12 07:41:34;;;;;;;4.77;3.13;;;25.90;99.90;;;;;;5100510;28;20186;-82
2022/07/12 07:44:01;;;;;;;4.40;4.00;;;26.10;99.90;;;;;;5097698;28;20316;-81
2022/07/12 07:46:28;;;;;;;2.90;2.70;;;26.10;99.90;;;;;;5097193;28;20619;-82
2022/07/12 07:48:54;;;;;;;3.00;2.80;;;26.30;99.90;;;;;;5098917;28;20209;-83
2022/07/12 07:51:21;;;;;;;6.80;6.30;;;26.30;99.90;;;;;;5097471;28;20226;-81
2022/07/12 07:53:48;;;;;;;6.40;6.00;;;26.60;99.90;;;;;;5095808;28;20221;-81
2022/07/12 07:56:16;;;;;;;5.67;5.27;;;26.70;99.90;;;;;;5095883;28;20193;-81
2022/07/12 07:58:43;;;;;;;5.73;5.23;;;26.30;99.90;;;;;;5096805;28;20255;-80
2022/07/12 08:01:10;;;;;;;2.97;2.73;;;26.30;99.90;;;;;;5091496;28;20202;-80
2022/07/12 08:03:37;;;;;;;3.20;2.60;;;26.40;99.90;;;;;;5094500;28;20455;-81
2022/07/12 08:06:04;;;;;;;7.03;6.43;;;26.70;99.90;;;;;;5095546;28;20193;-82
2022/07/12 08:08:31;;;;;;;6.73;6.20;;;26.90;99.90;;;;;;5096191;28;20189;-82
2022/07/12 08:10:58;;;;;;;5.40;4.90;;;27.10;99.90;;;;;;5093358;28;20467;-81
2022/07/12 08:13:26;;;;;;;5.17;4.77;;;27.00;99.90;;;;;;5091338;28;20234;-77
2022/07/12 08:15:53;;;;;;;4.90;4.30;;;27.00;99.90;;;;;;5095437;28;20182;-78
2022/07/12 08:18:20;;;;;;;5.03;4.73;;;27.00;99.90;;;;;;5087706;28;21287;-78
2022/07/12 08:20:46;;;;;;;7.10;6.60;;;27.00;99.90;;;;;;5095748;28;20586;-78
2022/07/12 08:23:14;;;;;;;7.77;7.17;;;27.10;99.90;;;;;;5095898;28;20646;-78
2022/07/12 08:25:41;;;;;;;5.30;4.90;;;26.90;99.90;;;;;;5095040;28;20202;-78
2022/07/12 08:28:07;;;;;;;7.33;6.80;;;26.90;99.90;;;;;;5095091;28;20194;-77
2022/07/12 08:30:36;;;;;;;7.10;6.60;;;27.20;99.90;;;;;;5096949;28;20217;-78
2022/07/12 08:33:02;;;;;;;6.17;5.77;;;27.30;99.90;;;;;;5095155;28;20213;-78
2022/07/12 08:35:29;;;;;;;6.73;6.23;;;27.30;99.90;;;;;;5094526;28;20259;-83
2022/07/12 08:37:56;;;;;;;6.80;6.40;;;27.10;99.90;;;;;;5091806;28;20559;-80
2022/07/12 08:40:23;;;;;;;6.50;6.10;;;27.20;99.90;;;;;;5092208;28;20267;-82
2022/07/12 08:42:50;;;;;;;4.30;4.10;;;27.30;99.90;;;;;;5094795;28;20619;-83
2022/07/12 08:45:17;;;;;;;4.40;4.00;;;27.30;99.90;;;;;;5097460;28;20198;-82
2022/07/12 08:47:45;;;;;;;3.10;2.90;;;27.30;99.90;;;;;;5097220;28;20193;-82
2022/07/12 08:50:17;;;;;;;5.97;5.57;;;27.30;99.90;;;;;;5096693;28;20209;-82
2022/07/12 08:52:46;;;;;;;4.60;4.30;;;27.40;99.90;;;;;;5098387;28;20216;-83
2022/07/12 08:55:22;;;;;;;3.17;2.67;;;27.50;99.90;;;;;;5098114;28;20204;-82
2022/07/12 08:57:49;;;;;;;2.70;2.60;;;27.60;99.90;;;;;;5096385;28;20228;-82
2022/07/12 09:00:16;;;;;;;3.83;3.63;;;27.50;99.10;;;;;;5095653;28;20230;-82
2022/07/12 09:02:50;;;;;;;3.10;2.83;;;27.40;99.80;;;;;;5099307;28;20220;-82
2022/07/12 09:05:18;;;;;;;2.40;2.30;;;27.80;99.90;;;;;;5098654;28;20254;-81
2022/07/12 09:07:45;;;;;;;2.70;2.60;;;28.00;99.90;;;;;;5098004;28;20202;-83
2022/07/12 09:10:13;;;;;;;4.10;3.70;;;28.10;99.40;;;;;;5096494;28;20209;-81
2022/07/12 09:12:41;;;;;;;2.63;2.43;;;28.30;99.90;;;;;;5095009;28;20206;-82
2022/07/12 09:15:19;;;;;;;2.00;1.80;;;28.60;99.60;;;;;;5092603;28;20202;-82
2022/07/12 09:17:59;;;;;;;2.40;2.30;;;28.50;98.80;;;;;;5098102;28;20201;-83
2022/07/12 09:20:27;;;;;;;2.43;2.20;;;29.00;98.20;;;;;;5098005;28;20198;-82
2022/07/12 09:22:57;;;;;;;2.87;2.57;;;28.70;98.00;;;;;;5098939;28;20198;-83
2022/07/12 09:25:24;;;;;;;2.50;2.30;;;29.10;98.00;;;;;;5101576;28;20193;-84
2022/07/12 09:27:55;;;;;;;2.17;2.07;;;28.80;96.80;;;;;;5101282;28;20194;-83
2022/07/12 09:30:23;;;;;;;2.17;2.07;;;28.40;98.50;;;;;;5098042;28;20194;-83
2022/07/12 09:38:29;;;;;;;5.13;4.83;;;26.70;98.60;;;;;;5095949;28;20259;-81
2022/07/12 09:40:57;;;;;;;5.93;5.63;;;26.60;99.60;;;;;;5099076;28;20247;-80
2022/07/12 09:43:24;;;;;;;5.13;4.73;;;26.80;99.90;;;;;;5098438;28;20248;-80
2022/07/12 09:45:51;;;;;;;5.97;5.67;;;27.00;97.80;;;;;;5097431;28;20206;-81
2022/07/12 09:48:20;;;;;;;5.30;5.00;;;27.30;99.00;;;;;;5095739;28;20202;-82
2022/07/12 09:50:50;;;;;;;1.80;1.70;;;27.70;98.10;;;;;;5096777;28;20763;-81
2022/07/12 09:53:23;;;;;;;1.80;1.70;;;27.70;99.00;;;;;;5100531;28;20222;-82
2022/07/12 09:55:52;;;;;;;1.70;1.60;;;28.10;96.90;;;;;;5098762;28;20284;-83
2022/07/12 09:58:24;;;;;;;2.47;2.00;;;27.90;97.20;;;;;;5096687;28;20233;-83
2022/07/12 10:00:53;;;;;;;3.17;2.97;;;28.30;97.30;;;;;;5096911;28;20194;-82
2022/07/12 10:03:22;;;;;;;5.57;5.17;;;28.60;97.20;;;;;;5090209;28;20280;-81
2022/07/12 10:05:54;;;;;;;6.30;5.90;;;28.80;96.50;;;;;;5097769;28;20647;-81
2022/07/12 10:08:22;;;;;;;2.20;2.00;;;28.50;95.30;;;;;;5095514;28;20248;-80
2022/07/12 10:10:50;;;;;;;3.27;3.07;;;28.50;96.60;;;;;;5095772;28;20288;-81
2022/07/12 10:13:19;;;;;;;4.57;4.17;;;28.50;96.00;;;;;;5095825;28;20214;-81
2022/07/12 10:15:47;;;;;;;4.80;4.47;;;28.20;97.80;;;;;;5099747;28;20247;-80
2022/07/12 10:18:19;;;;;;;4.37;4.10;;;28.20;97.40;;;;;;5098034;28;20270;-80
2022/07/12 10:20:47;;;;;;;4.60;4.30;;;27.70;96.80;;;;;;5096651;28;20194;-81
2022/07/12 10:23:35;;;;;;;2.33;2.13;;;27.80;97.20;;;;;;5099656;28;20214;-80
2022/07/12 10:26:24;;;;;;;2.60;2.13;;;28.00;97.90;;;;;;5099992;28;20198;-82
2022/07/12 10:29:03;;;;;;;2.60;2.40;;;28.20;97.90;;;;;;5099894;28;20205;-80
2022/07/12 10:31:34;;;;;;;2.50;1.90;;;28.60;97.40;;;;;;5101650;28;20209;-81
2022/07/12 10:34:20;;;;;;;2.67;1.97;;;28.70;97.00;;;;;;5100443;28;20637;-81
2022/07/12 10:37:10;;;;;;;3.67;3.47;;;28.60;96.60;;;;;;5099057;28;20255;-80
2022/07/12 10:39:40;;;;;;;2.17;2.07;;;28.60;96.90;;;;;;5100385;28;20285;-80
2022/07/12 10:42:18;;;;;;;5.83;5.53;;;28.30;95.90;;;;;;5098637;28;20194;-81
2022/07/12 10:44:47;;;;;;;1.90;1.80;;;27.80;96.90;;;;;;5097640;28;20231;-81
2022/07/12 10:47:18;;;;;;;2.10;2.00;;;27.60;97.30;;;;;;5099035;28;20212;-80
2022/07/12 10:49:48;;;;;;;2.03;1.93;;;27.80;97.30;;;;;;5098970;28;20214;-81
2022/07/12 10:52:17;;;;;;;5.50;5.20;;;27.60;97.60;;;;;;5100810;28;20277;-81
2022/07/12 10:54:50;;;;;;;5.40;5.10;;;27.80;97.30;;;;;;5098812;28;20241;-80
2022/07/12 10:57:17;;;;;;;3.73;2.00;;;27.80;96.50;;;;;;5100428;28;20224;-80
2022/07/12 10:59:51;;;;;;;2.57;2.33;;;27.60;96.10;;;;;;5101427;28;20255;-81
2022/07/12 11:02:20;;;;;;;1.90;1.80;;;26.50;96.70;;;;;;5093237;28;20200;-80
2022/07/12 11:04:48;;;;;;;2.00;1.80;;;26.60;96.30;;;;;;5100102;28;20277;-80
2022/07/12 11:07:18;;;;;;;1.97;1.87;;;26.50;97.70;;;;;;5099274;28;20292;-80
2022/07/12 11:09:51;;;;;;;5.43;5.13;;;26.50;97.80;;;;;;5100786;28;20605;-81
2022/07/12 11:12:18;;;;;;;1.90;1.80;;;26.90;97.70;;;;;;5098231;28;20225;-79
2022/07/12 11:14:49;;;;;;;1.73;1.63;;;27.20;97.40;;;;;;5097549;28;20222;-79
2022/07/12 11:17:15;;;;;;;4.00;2.03;;;27.00;98.10;;;;;;5095673;28;20209;-80
2022/07/12 11:19:42;;;;;;;3.33;2.40;;;26.70;96.50;;;;;;5099040;28;20201;-80
2022/07/12 11:22:09;;;;;;;1.70;1.60;;;26.00;97.60;;;;;;5095912;28;20218;-82
2022/07/12 11:24:36;;;;;;;1.80;1.70;;;26.10;98.40;;;;;;5097083;28;20256;-80
2022/07/12 11:27:06;;;;;;;5.53;5.23;;;26.20;97.50;;;;;;5099267;28;20209;-80
2022/07/12 11:29:33;;;;;;;4.73;4.43;;;26.30;98.10;;;;;;5098588;28;20231;-80
2022/07/12 11:32:03;;;;;;;2.23;2.13;;;26.30;96.90;;;;;;5097679;28;20222;-81
2022/07/12 11:34:30;;;;;;;4.13;3.83;;;26.00;96.90;;;;;;5098785;28;20887;-80
2022/07/12 11:36:59;;;;;;;1.90;1.80;;;25.90;97.90;;;;;;5097418;28;20210;-80
2022/07/12 11:39:33;;;;;;;2.57;2.37;;;25.70;97.60;;;;;;5099335;28;20198;-80
2022/07/12 11:42:00;;;;;;;5.00;4.70;;;25.60;98.70;;;;;;5098239;28;20190;-79
2022/07/12 11:44:44;;;;;;;4.83;4.53;;;25.70;98.00;;;;;;5098213;28;20229;-81
2022/07/12 11:47:12;;;;;;;2.13;1.93;;;25.60;97.10;;;;;;5092015;28;20594;-80
2022/07/12 11:49:44;;;;;;;1.80;1.70;;;25.60;98.20;;;;;;5096780;28;20259;-80
2022/07/12 11:52:13;;;;;;;1.80;1.70;;;25.90;98.50;;;;;;5089619;28;20304;-80
2022/07/12 11:54:40;;;;;;;2.93;1.80;;;25.90;98.20;;;;;;5098027;28;20273;-80
2022/07/12 11:57:09;;;;;;;1.70;1.60;;;26.20;97.40;;;;;;5098681;28;20747;-81
2022/07/12 11:59:35;;;;;;;1.90;1.80;;;26.00;97.10;;;;;;5096990;28;20662;-80
2022/07/12 12:02:08;;;;;;;1.93;1.70;;;25.70;98.00;;;;;;5098816;28;20240;-81
2022/07/12 12:04:46;;;;;;;3.17;3.03;;;25.60;97.40;;;;;;5096661;28;20244;-80
2022/07/12 12:07:15;;;;;;;1.90;1.80;;;25.50;98.00;;;;;;5091424;28;20253;-80
2022/07/12 12:10:03;;;;;;;2.00;1.73;;;25.60;98.40;;;;;;5096847;28;20202;-79
2022/07/12 12:12:37;;;;;;;2.03;1.93;;;25.60;98.00;;;;;;5090821;28;20213;-80
2022/07/12 12:15:05;;;;;;;1.90;1.80;;;25.50;98.10;;;;;;5096209;28;20281;-80
2022/07/12 12:17:35;;;;;;;1.60;1.50;;;25.60;98.60;;;;;;5098398;28;20322;-79
2022/07/12 12:20:17;;;;;;;5.40;5.00;;;25.80;98.10;;;;;;5096392;28;20262;-80
2022/07/12 12:22:45;;;;;;;5.10;4.80;;;25.50;97.30;;;;;;5097036;28;20201;-81
2022/07/12 12:25:14;;;;;;;2.43;1.70;;;25.40;97.70;;;;;;5097177;28;20269;-79
2022/07/12 12:27:43;;;;;;;1.87;1.77;;;25.50;97.70;;;;;;5096503;28;20205;-80
2022/07/12 12:30:10;;;;;;;1.67;1.57;;;25.30;96.60;;;;;;5096163;28;20198;-80
2022/07/12 12:32:49;;;;;;;1.60;1.50;;;25.20;97.90;;;;;;5093850;28;20213;-79
2022/07/12 12:35:18;;;;;;;1.70;1.60;;;25.30;98.80;;;;;;5093286;28;20215;-79
2022/07/12 12:37:52;;;;;;;1.47;1.40;;;25.50;99.00;;;;;;5097264;28;20198;-81
2022/07/12 12:40:21;;;;;;;1.67;1.50;;;25.70;98.90;;;;;;5097992;28;20216;-80
2022/07/12 12:42:48;;;;;;;1.85;1.75;;;25.90;97.90;;;;;;5093540;28;20440;-79
2022/07/12 12:45:19;;;;;;;4.70;4.50;;;25.90;97.60;;;;;;5097683;28;20206;-79
2022/07/12 12:47:57;;;;;;;4.00;3.80;;;26.00;97.40;;;;;;5096873;28;20672;-80
2022/07/12 12:50:41;;;;;;;3.72;3.53;;;26.00;97.70;;;;;;5095691;28;20490;-81
2022/07/12 12:53:13;;;;;;;1.90;1.80;;;26.00;97.10;;;;;;5096460;28;20231;-81
2022/07/12 12:55:40;;;;;;;3.20;2.00;;;25.80;97.50;;;;;;5097372;28;20197;-79
2022/07/12 12:58:07;;;;;;;2.40;1.70;;;25.50;96.70;;;;;;5097164;28;20231;-81
2022/07/12 13:00:38;;;;;;;3.00;2.80;;;25.40;97.20;;;;;;5094827;28;20209;-80
2022/07/12 13:03:07;;;;;;;1.73;1.70;;;25.40;97.80;;;;;;5094179;28;20228;-79
2022/07/12 13:05:34;;;;;;;3.87;3.67;;;25.30;96.00;;;;;;5095832;28;20206;-80